createdAt,value
2022-09-28T00:01:09.205Z,80.27
2022-09-28T00:03:37.376Z,79.67
2022-09-28T00:06:08.609Z,80.36
2022-09-28T00:08:37.076Z,80.25
2022-09-28T00:11:05.839Z,79.81
2022-09-28T00:13:34.095Z,80.05
2022-09-28T00:16:03.868Z,80.43
2022-09-28T00:18:32.232Z,80.37
2022-09-28T00:21:04.850Z,80.37
2022-09-28T00:23:34.370Z,80.22
2022-09-28T00:26:05.844Z,80.77
2022-09-28T00:28:33.596Z,81.04
2022-09-28T00:31:01.308Z,80.55
2022-09-28T00:33:28.942Z,81.03
2022-09-28T00:35:57.489Z,80.85
2022-09-28T00:38:28.348Z,80.96
2022-09-28T00:40:57.336Z,80.47
2022-09-28T00:43:25.575Z,80.53
2022-09-28T00:46:00.006Z,80.80
2022-09-28T00:48:31.261Z,81.09
2022-09-28T00:51:01.448Z,81.54
2022-09-28T00:53:34.699Z,82.08
2022-09-28T00:56:09.033Z,81.31
2022-09-28T00:58:40.518Z,81.59
2022-09-28T01:01:08.448Z,81.49
2022-09-28T01:03:36.201Z,81.42
2022-09-28T01:06:05.481Z,81.54
2022-09-28T01:08:34.458Z,82.07
2022-09-28T01:11:03.688Z,81.82
2022-09-28T01:13:33.133Z,82.23
2022-09-28T01:16:10.310Z,81.85
2022-09-28T01:18:46.670Z,81.77
2022-09-28T01:21:19.718Z,82.03
2022-09-28T01:24:10.302Z,81.63
2022-09-28T01:26:49.350Z,81.94
2022-09-28T01:29:29.509Z,81.39
2022-09-28T01:32:02.754Z,81.21
2022-09-28T01:34:38.870Z,81.71
2022-09-28T01:37:10.677Z,82.32
2022-09-28T01:39:42.944Z,81.36
2022-09-28T01:42:17.787Z,81.60
2022-09-28T01:44:48.890Z,82.16
2022-09-28T01:47:22.334Z,81.80
2022-09-28T01:49:55.163Z,81.96
2022-09-28T01:52:27.875Z,81.20
2022-09-28T01:55:01.418Z,81.37
2022-09-28T01:57:35.304Z,81.87
2022-09-28T02:00:08.104Z,81.44
2022-09-28T02:02:40.683Z,81.52
2022-09-28T02:05:13.879Z,81.40
2022-09-28T02:07:45.678Z,81.76
2022-09-28T02:10:16.310Z,82.07
2022-09-28T02:12:49.507Z,81.53
2022-09-28T02:15:21.659Z,81.35
2022-09-28T02:17:50.034Z,81.21
2022-09-28T02:20:18.553Z,81.31
2022-09-28T02:22:50.467Z,81.50
2022-09-28T02:25:25.137Z,81.96
2022-09-28T02:27:59.335Z,82.11
2022-09-28T02:30:27.458Z,81.68
2022-09-28T02:32:58.947Z,82.17
2022-09-28T02:35:26.639Z,82.29
2022-09-28T02:37:55.172Z,81.71
2022-09-28T02:40:26.526Z,81.96
2022-09-28T02:43:03.803Z,82.20
2022-09-28T02:45:40.800Z,81.77
2022-09-28T02:48:24.051Z,82.00
2022-09-28T02:51:12.976Z,82.10
2022-09-28T02:53:58.663Z,82.58
2022-09-28T02:56:48.960Z,83.41
2022-09-28T02:59:33.248Z,83.36
2022-09-28T03:02:11.817Z,84.35
2022-09-28T03:04:48.016Z,83.27
2022-09-28T03:07:23.872Z,82.30
2022-09-28T03:09:59.813Z,82.43
2022-09-28T03:12:29.303Z,82.46
2022-09-28T03:15:14.921Z,82.34
2022-09-28T03:17:42.465Z,82.02
2022-09-28T03:20:12.111Z,82.28
2022-09-28T03:22:39.874Z,82.22
2022-09-28T03:25:08.961Z,82.36
2022-09-28T03:27:36.638Z,82.96
2022-09-28T03:30:05.285Z,82.17
2022-09-28T03:32:34.162Z,81.84
2022-09-28T03:35:01.805Z,82.39
2022-09-28T03:37:29.656Z,82.72
2022-09-28T03:39:57.239Z,82.69
2022-09-28T03:42:24.854Z,82.75
2022-09-28T03:44:52.493Z,82.95
2022-09-28T03:47:20.251Z,82.35
2022-09-28T03:49:49.289Z,82.64
2022-09-28T03:52:16.819Z,82.68
2022-09-28T03:54:48.915Z,83.08
2022-09-28T03:57:16.836Z,83.41
2022-09-28T03:59:44.365Z,83.29
2022-09-28T04:02:12.028Z,82.92
2022-09-28T04:04:39.645Z,83.09
2022-09-28T04:07:08.545Z,83.33
2022-09-28T04:09:36.090Z,82.89
2022-09-28T04:12:04.576Z,83.29
2022-09-28T04:14:32.335Z,83.04
2022-09-28T04:16:59.856Z,82.87
2022-09-28T04:19:27.720Z,82.74
2022-09-28T04:21:55.230Z,83.04
2022-09-28T04:24:24.168Z,82.84
2022-09-28T04:26:51.671Z,83.01
2022-09-28T04:29:18.932Z,83.59
2022-09-28T04:31:49.595Z,83.28
2022-09-28T04:34:19.429Z,82.78
2022-09-28T04:36:47.840Z,82.77
2022-09-28T04:39:17.006Z,83.30
2022-09-28T04:41:48.733Z,82.67
2022-09-28T04:44:16.301Z,83.35
2022-09-28T04:46:43.866Z,83.23
2022-09-28T04:49:11.972Z,83.03
2022-09-28T04:51:39.523Z,82.75
2022-09-28T04:54:07.062Z,83.51
2022-09-28T04:56:34.570Z,83.36
2022-09-28T04:59:03.452Z,83.13
2022-09-28T05:01:31.213Z,83.96
2022-09-28T05:03:58.818Z,84.17
2022-09-28T05:06:28.514Z,84.70
2022-09-28T05:08:57.294Z,84.34
2022-09-28T05:11:24.887Z,84.02
2022-09-28T05:13:52.427Z,83.84
2022-09-28T05:16:21.667Z,84.55
2022-09-28T05:18:49.314Z,84.44
2022-09-28T05:21:19.484Z,84.31
2022-09-28T05:23:48.084Z,84.14
2022-09-28T05:26:15.716Z,84.58
2022-09-28T05:28:44.573Z,83.94
2022-09-28T05:31:12.170Z,84.60
2022-09-28T05:33:41.256Z,84.33
2022-09-28T05:36:10.772Z,84.90
2022-09-28T05:38:38.667Z,84.47
2022-09-28T05:41:06.979Z,84.54
2022-09-28T05:43:34.870Z,84.98
2022-09-28T05:46:02.463Z,84.90
2022-09-28T05:48:30.042Z,84.94
2022-09-28T05:50:59.680Z,84.74
2022-09-28T05:53:27.275Z,84.89
2022-09-28T05:55:58.713Z,85.15
2022-09-28T05:58:26.224Z,85.45
2022-09-28T06:00:55.495Z,85.23
2022-09-28T06:03:23.479Z,85.94
2022-09-28T06:05:51.386Z,85.88
2022-09-28T06:08:20.279Z,85.75
2022-09-28T06:10:47.839Z,85.94
2022-09-28T06:13:15.362Z,86.89
2022-09-28T06:15:43.721Z,87.06
2022-09-28T06:18:14.835Z,89.04
2022-09-28T06:20:42.730Z,86.45
2022-09-28T06:23:10.449Z,85.77
2022-09-28T06:25:39.434Z,87.05
2022-09-28T06:28:10.339Z,86.42
2022-09-28T06:30:39.061Z,86.59
2022-09-28T06:33:08.684Z,87.48
2022-09-28T06:35:36.606Z,87.56
2022-09-28T06:38:04.515Z,88.50
2022-09-28T06:40:33.010Z,88.17
2022-09-28T06:43:03.221Z,89.78
2022-09-28T06:45:31.763Z,88.90
2022-09-28T06:48:00.856Z,88.74
2022-09-28T06:50:32.232Z,89.11
2022-09-28T06:53:00.742Z,88.69
2022-09-28T06:55:29.497Z,88.04
2022-09-28T06:58:02.420Z,88.74
2022-09-28T07:00:32.876Z,87.99
2022-09-28T07:03:01.014Z,88.64
2022-09-28T07:05:29.878Z,88.32
2022-09-28T07:07:58.208Z,89.80
2022-09-28T07:10:28.393Z,90.80
2022-09-28T07:12:57.525Z,90.70
2022-09-28T07:15:27.029Z,90.32
2022-09-28T07:18:02.717Z,90.70
2022-09-28T07:20:33.740Z,89.27
2022-09-28T07:23:17.125Z,90.61
2022-09-28T07:25:48.776Z,90.36
2022-09-28T07:28:17.225Z,89.18
2022-09-28T07:30:46.200Z,89.61
2022-09-28T07:33:15.923Z,89.72
2022-09-28T07:35:52.165Z,90.71
2022-09-28T07:38:19.861Z,89.83
2022-09-28T07:41:05.648Z,90.03
2022-09-28T07:43:33.410Z,92.99
2022-09-28T07:46:02.401Z,91.64
2022-09-28T07:48:37.850Z,92.91
2022-09-28T07:51:05.738Z,93.36
2022-09-28T07:53:33.368Z,92.32
2022-09-28T07:56:08.575Z,92.76
2022-09-28T07:58:37.781Z,92.06
2022-09-28T08:01:08.875Z,91.35
2022-09-28T08:03:36.708Z,91.61
2022-09-28T08:06:06.994Z,90.65
2022-09-28T08:08:35.724Z,88.91
2022-09-28T08:11:04.025Z,88.19
2022-09-28T08:13:31.635Z,88.78
2022-09-28T08:16:02.603Z,88.84
2022-09-28T08:18:31.524Z,87.73
2022-09-28T08:21:16.416Z,87.43
2022-09-28T08:23:44.194Z,88.42
2022-09-28T08:26:15.390Z,89.15
2022-09-28T08:28:45.039Z,90.08
2022-09-28T08:31:12.745Z,91.21
2022-09-28T08:33:42.781Z,91.02
2022-09-28T08:36:11.249Z,90.34
2022-09-28T08:38:38.780Z,90.00
2022-09-28T08:41:16.492Z,90.43
2022-09-28T08:44:04.430Z,91.34
2022-09-28T08:46:36.787Z,90.76
2022-09-28T08:49:25.019Z,91.20
2022-09-28T08:51:59.201Z,90.37
2022-09-28T08:54:34.980Z,90.20
2022-09-28T08:57:06.153Z,89.88
2022-09-28T08:59:46.590Z,89.10
2022-09-28T09:02:20.241Z,89.19
2022-09-28T09:04:51.576Z,89.50
2022-09-28T09:07:32.771Z,89.02
2022-09-28T09:10:10.421Z,89.30
2022-09-28T09:12:45.558Z,88.83
2022-09-28T09:15:39.671Z,89.09
2022-09-28T09:18:20.052Z,88.06
2022-09-28T09:20:54.808Z,88.57
2022-09-28T09:23:36.314Z,88.50
2022-09-28T09:26:13.157Z,88.09
2022-09-28T09:29:03.850Z,87.92
2022-09-28T09:31:45.757Z,87.23
2022-09-28T09:34:29.533Z,86.70
2022-09-28T09:37:13.619Z,86.35
2022-09-28T09:39:55.903Z,85.10
2022-09-28T09:42:38.019Z,85.14
2022-09-28T09:45:26.768Z,85.64
2022-09-28T09:48:01.507Z,85.22
2022-09-28T09:50:34.664Z,84.22
2022-09-28T09:53:15.507Z,84.58
2022-09-28T09:55:46.441Z,84.59
2022-09-28T09:58:19.076Z,84.71
2022-09-28T10:00:50.812Z,82.69
2022-09-28T10:03:23.254Z,82.37
2022-09-28T10:05:57.564Z,82.33
2022-09-28T10:08:28.251Z,81.65
2022-09-28T10:11:05.606Z,81.67
2022-09-28T10:13:33.960Z,79.69
2022-09-28T10:16:02.327Z,80.58
2022-09-28T10:18:30.117Z,78.71
2022-09-28T10:20:57.681Z,78.42
2022-09-28T10:23:29.786Z,78.67
2022-09-28T10:26:03.241Z,77.41
2022-09-28T10:28:36.708Z,77.52
2022-09-28T10:31:35.034Z,78.54
2022-09-28T10:34:02.956Z,76.31
2022-09-28T10:36:37.927Z,77.30
2022-09-28T10:39:07.394Z,76.66
2022-09-28T10:41:34.925Z,77.61
2022-09-28T10:44:07.360Z,77.88
2022-09-28T10:46:36.880Z,77.57
2022-09-28T10:49:07.725Z,77.56
2022-09-28T10:51:47.239Z,77.50
2022-09-28T10:54:18.348Z,77.45
2022-09-28T10:56:46.888Z,77.26
2022-09-28T10:59:25.852Z,78.13
2022-09-28T11:01:56.698Z,76.28
2022-09-28T11:04:28.619Z,75.72
2022-09-28T11:09:31.434Z,75.14
2022-09-28T11:12:00.429Z,73.75
2022-09-28T11:14:38.350Z,73.12
2022-09-28T11:17:19.742Z,74.13
2022-09-28T11:19:47.353Z,74.75
2022-09-28T11:22:28.808Z,75.04
2022-09-28T11:25:21.087Z,75.46
2022-09-28T11:27:58.251Z,74.72
2022-09-28T11:30:29.332Z,75.76
2022-09-28T11:33:04.031Z,75.32
2022-09-28T11:35:45.069Z,75.03
2022-09-28T11:38:40.519Z,74.93
2022-09-28T11:41:22.070Z,75.82
2022-09-28T11:44:14.334Z,75.88
2022-09-28T11:46:50.733Z,76.48
2022-09-28T11:49:34.303Z,76.16
2022-09-28T11:52:07.739Z,76.54
2022-09-28T11:54:42.078Z,75.39
2022-09-28T11:57:19.137Z,75.32
2022-09-28T11:59:55.216Z,75.03
2022-09-28T12:02:26.876Z,73.48
2022-09-28T12:05:00.276Z,74.39
2022-09-28T12:07:33.922Z,73.34
2022-09-28T12:10:10.432Z,71.35
2022-09-28T12:12:47.614Z,73.27
2022-09-28T12:15:19.723Z,73.07
2022-09-28T12:17:51.502Z,71.06
2022-09-28T12:20:23.740Z,69.87
2022-09-28T12:23:02.848Z,69.69
2022-09-28T12:25:37.799Z,70.70
2022-09-28T12:28:14.670Z,69.52
2022-09-28T12:30:44.879Z,68.54
2022-09-28T12:33:15.252Z,70.24
2022-09-28T12:35:58.215Z,69.30
2022-09-28T12:39:08.426Z,67.10
2022-09-28T12:41:50.061Z,67.99
2022-09-28T12:44:41.496Z,68.38
2022-09-28T12:47:22.903Z,70.25
2022-09-28T12:53:07.867Z,70.70
2022-09-28T12:55:47.837Z,69.48
2022-09-28T12:58:29.604Z,70.42
2022-09-28T13:01:12.302Z,69.34
2022-09-28T13:03:57.971Z,69.82
2022-09-28T13:06:43.941Z,69.44
2022-09-28T13:09:19.903Z,66.93
2022-09-28T13:11:56.282Z,66.36
2022-09-28T13:14:46.655Z,68.25
2022-09-28T13:17:25.680Z,68.30
2022-09-28T13:19:59.369Z,67.71
2022-09-28T13:22:39.952Z,67.69
2022-09-28T13:25:16.601Z,68.22
2022-09-28T13:27:49.585Z,67.59
2022-09-28T13:30:18.001Z,67.83
2022-09-28T13:32:47.834Z,67.52
2022-09-28T13:35:19.321Z,67.57
2022-09-28T13:37:47.545Z,67.31
2022-09-28T13:40:16.227Z,66.93
2022-09-28T13:43:05.193Z,67.64
2022-09-28T13:45:53.917Z,66.72
2022-09-28T13:48:29.258Z,67.17
2022-09-28T13:51:22.006Z,67.74
2022-09-28T13:54:15.745Z,68.19
2022-09-28T13:56:55.095Z,67.56
2022-09-28T13:59:27.681Z,67.82
2022-09-28T14:02:04.276Z,67.25
2022-09-28T14:04:58.096Z,67.59
2022-09-28T14:10:19.189Z,67.52
2022-09-28T14:12:49.187Z,67.95
2022-09-28T14:15:46.881Z,68.07
2022-09-28T14:18:29.787Z,68.62
2022-09-28T14:21:13.289Z,68.69
2022-09-28T14:24:00.031Z,70.02
2022-09-28T14:27:09.351Z,69.53
2022-09-28T14:29:38.808Z,69.66
2022-09-28T14:32:22.491Z,69.79
2022-09-28T14:34:58.068Z,69.44
2022-09-28T14:37:48.846Z,69.58
2022-09-28T14:40:39.247Z,70.11
2022-09-28T14:43:24.670Z,70.97
2022-09-28T14:45:54.487Z,71.94
2022-09-28T14:48:23.442Z,72.21
2022-09-28T14:50:51.435Z,70.44
2022-09-28T14:53:25.565Z,71.32
2022-09-28T14:55:58.690Z,70.31
2022-09-28T14:58:28.809Z,69.75
2022-09-28T15:01:06.233Z,71.36
2022-09-28T15:03:36.414Z,71.09
2022-09-28T15:06:03.962Z,71.92
2022-09-28T15:08:40.836Z,71.83
2022-09-28T15:11:14.775Z,71.91
2022-09-28T15:13:43.528Z,71.79
2022-09-28T15:16:14.050Z,72.08
2022-09-28T15:19:04.076Z,71.91
2022-09-28T15:21:39.927Z,71.98
2022-09-28T15:24:30.586Z,71.17
2022-09-28T15:26:58.809Z,71.56
2022-09-28T15:29:28.118Z,71.30
2022-09-28T15:31:55.644Z,70.83
2022-09-28T15:34:46.320Z,72.06
2022-09-28T15:37:16.276Z,71.56
2022-09-28T15:39:48.359Z,72.38
2022-09-28T15:42:17.505Z,73.08
2022-09-28T15:45:02.911Z,73.15
2022-09-28T15:47:31.848Z,72.84
2022-09-28T15:50:02.116Z,73.07
2022-09-28T15:52:36.056Z,72.98
2022-09-28T15:55:16.990Z,73.19
2022-09-28T15:57:44.688Z,72.54
2022-09-28T16:00:26.431Z,72.13
2022-09-28T16:03:02.240Z,73.10
2022-09-28T16:05:35.771Z,72.94
2022-09-28T16:08:04.362Z,73.06
2022-09-28T16:10:35.870Z,73.66
2022-09-28T16:13:16.039Z,73.58
2022-09-28T16:15:43.851Z,73.43
2022-09-28T16:18:22.081Z,73.96
2022-09-28T16:20:51.950Z,74.08
2022-09-28T16:23:24.051Z,74.52
2022-09-28T16:25:56.558Z,74.50
2022-09-28T16:28:51.663Z,74.61
2022-09-28T16:31:29.547Z,74.71
2022-09-28T16:34:01.179Z,75.03
2022-09-28T16:36:39.511Z,75.06
2022-09-28T16:39:07.133Z,75.24
2022-09-28T16:41:36.163Z,75.46
2022-09-28T16:44:03.826Z,75.08
2022-09-28T16:46:37.198Z,75.22
2022-09-28T16:49:06.753Z,75.12
2022-09-28T16:51:34.624Z,75.61
2022-09-28T16:54:31.380Z,75.41
2022-09-28T16:57:00.826Z,75.21
2022-09-28T16:59:29.317Z,75.44
2022-09-28T17:01:57.549Z,76.20
2022-09-28T17:04:25.623Z,76.09
2022-09-28T17:06:54.388Z,76.25
2022-09-28T17:09:23.082Z,76.19
2022-09-28T17:11:56.244Z,76.55
2022-09-28T17:14:26.791Z,76.63
2022-09-28T17:17:13.904Z,76.90
2022-09-28T17:19:42.793Z,77.26
2022-09-28T17:22:10.625Z,77.29
2022-09-28T17:24:38.203Z,77.82
2022-09-28T17:27:06.870Z,77.35
2022-09-28T17:29:35.762Z,77.71
2022-09-28T17:32:04.954Z,77.60
2022-09-28T17:34:32.497Z,78.08
2022-09-28T17:37:00.048Z,77.66
2022-09-28T17:39:27.821Z,77.99
2022-09-28T17:41:55.352Z,78.40
2022-09-28T17:44:22.968Z,78.63
2022-09-28T17:46:52.246Z,78.64
2022-09-28T17:49:19.802Z,79.35
2022-09-28T17:51:47.518Z,79.28
2022-09-28T17:54:16.864Z,79.20
2022-09-28T17:56:44.498Z,79.62
2022-09-28T17:59:14.872Z,79.71
2022-09-28T18:01:42.641Z,79.34
2022-09-28T18:04:23.267Z,79.62
2022-09-28T18:06:55.386Z,78.87
2022-09-28T18:09:25.324Z,79.39
2022-09-28T18:12:00.205Z,79.44
2022-09-28T18:14:28.379Z,79.08
2022-09-28T18:16:55.955Z,79.15
2022-09-28T18:19:28.611Z,78.93
2022-09-28T18:21:59.424Z,79.45
2022-09-28T18:24:27.125Z,79.28
2022-09-28T18:26:54.679Z,79.41
2022-09-28T18:29:22.620Z,79.56
2022-09-28T18:31:50.258Z,79.65
2022-09-28T18:34:18.086Z,79.21
2022-09-28T18:36:47.104Z,79.57
2022-09-28T18:39:14.730Z,79.19
2022-09-28T18:41:43.055Z,79.56
2022-09-28T18:44:10.935Z,79.79
2022-09-28T18:46:38.568Z,79.20
2022-09-28T18:49:06.370Z,80.08
2022-09-28T18:51:33.968Z,79.38
2022-09-28T18:54:07.519Z,79.44
2022-09-28T18:56:37.931Z,79.82
2022-09-28T18:59:09.957Z,80.00
2022-09-28T19:01:41.673Z,79.68
2022-09-28T19:04:10.969Z,79.51
2022-09-28T19:06:40.614Z,79.78
2022-09-28T19:09:09.871Z,79.98
2022-09-28T19:11:37.645Z,79.27
2022-09-28T19:14:05.248Z,79.68
2022-09-28T19:16:34.010Z,79.35
2022-09-28T19:19:02.761Z,79.49
2022-09-28T19:21:31.292Z,78.76
2022-09-28T19:24:01.815Z,78.47
2022-09-28T19:26:31.628Z,78.84
2022-09-28T19:29:00.053Z,78.82
2022-09-28T19:31:27.956Z,77.96
2022-09-28T19:33:55.577Z,78.37
2022-09-28T19:36:25.177Z,77.74
2022-09-28T19:38:53.706Z,77.65
2022-09-28T19:41:40.751Z,76.93
2022-09-28T19:44:15.733Z,77.42
2022-09-28T19:46:43.993Z,77.04
2022-09-28T19:49:13.933Z,77.09
2022-09-28T19:52:01.687Z,76.58
2022-09-28T19:54:36.327Z,76.81
2022-09-28T19:57:07.482Z,76.32
2022-09-28T19:59:37.586Z,76.73
2022-09-28T20:02:05.761Z,76.79
2022-09-28T20:04:33.404Z,76.83
2022-09-28T20:07:01.693Z,76.64
2022-09-28T20:09:29.346Z,76.62
2022-09-28T20:11:57.193Z,76.38
2022-09-28T20:14:28.144Z,76.15
2022-09-28T20:17:00.900Z,75.95
2022-09-28T20:19:28.490Z,76.06
2022-09-28T20:21:59.386Z,76.20
2022-09-28T20:24:28.743Z,76.43
2022-09-28T20:26:56.507Z,76.76
2022-09-28T20:29:24.271Z,76.97
2022-09-28T20:31:52.149Z,76.38
2022-09-28T20:34:21.120Z,76.29
2022-09-28T20:36:48.697Z,76.63
2022-09-28T20:39:16.425Z,76.38
2022-09-28T20:41:45.975Z,76.17
2022-09-28T20:44:13.670Z,76.40
2022-09-28T20:46:43.661Z,76.62
2022-09-28T20:49:11.344Z,75.99
2022-09-28T20:51:40.248Z,76.48
2022-09-28T20:54:08.101Z,76.45
2022-09-28T20:56:38.232Z,76.00
2022-09-28T20:59:07.534Z,76.29
2022-09-28T21:01:35.180Z,76.14
2022-09-28T21:04:04.495Z,76.13
2022-09-28T21:06:33.994Z,76.11
2022-09-28T21:09:03.942Z,76.31
2022-09-28T21:11:32.100Z,76.20
2022-09-28T21:14:01.629Z,76.28
2022-09-28T21:16:31.426Z,76.43
2022-09-28T21:18:59.623Z,75.73
2022-09-28T21:21:28.082Z,76.31
2022-09-28T21:23:56.927Z,76.40
2022-09-28T21:26:27.871Z,76.25
2022-09-28T21:28:57.477Z,76.44
2022-09-28T21:31:29.173Z,76.21
2022-09-28T21:33:57.606Z,76.17
2022-09-28T21:36:25.363Z,76.36
2022-09-28T21:38:53.497Z,76.37
2022-09-28T21:41:21.115Z,76.63
2022-09-28T21:43:50.052Z,76.35
2022-09-28T21:46:18.535Z,76.11
2022-09-28T21:48:46.309Z,76.64
2022-09-28T21:51:15.364Z,76.18
2022-09-28T21:53:43.628Z,76.47
2022-09-28T21:56:13.310Z,76.22
2022-09-28T21:58:41.324Z,76.24
2022-09-28T22:01:13.077Z,75.99
2022-09-28T22:03:41.073Z,75.86
2022-09-28T22:06:09.182Z,75.89
2022-09-28T22:08:37.649Z,76.16
2022-09-28T22:11:07.358Z,76.03
2022-09-28T22:13:36.601Z,76.05
2022-09-28T22:16:04.455Z,76.16
2022-09-28T22:18:34.212Z,76.29
2022-09-28T22:21:02.789Z,75.84
2022-09-28T22:23:31.395Z,75.66
2022-09-28T22:26:00.496Z,75.38
2022-09-28T22:28:29.092Z,75.39
2022-09-28T22:30:57.071Z,75.81
2022-09-28T22:33:25.519Z,75.58
2022-09-28T22:35:55.015Z,75.13
2022-09-28T22:38:24.965Z,75.42
2022-09-28T22:40:54.541Z,75.29
2022-09-28T22:43:23.341Z,75.19
2022-09-28T22:45:51.091Z,75.59
2022-09-28T22:48:18.698Z,75.21
2022-09-28T22:50:50.322Z,75.44
2022-09-28T22:53:19.895Z,75.54
2022-09-28T22:55:47.477Z,75.49
2022-09-28T22:58:15.162Z,75.65
2022-09-28T23:00:43.163Z,75.77
2022-09-28T23:03:10.988Z,76.09
2022-09-28T23:05:38.658Z,76.02
2022-09-28T23:08:06.421Z,75.78
2022-09-28T23:10:35.374Z,76.43
2022-09-28T23:13:02.942Z,75.95
2022-09-28T23:15:30.550Z,76.19
2022-09-28T23:17:58.110Z,76.03
2022-09-28T23:20:25.967Z,76.03
2022-09-28T23:22:53.760Z,76.29
2022-09-28T23:25:21.375Z,76.08
2022-09-28T23:27:51.593Z,75.79
2022-09-28T23:30:21.048Z,75.91
2022-09-28T23:32:48.621Z,75.63
2022-09-28T23:35:16.346Z,75.75
2022-09-28T23:37:43.873Z,76.07
2022-09-28T23:40:11.715Z,75.71
2022-09-28T23:42:39.279Z,75.73
2022-09-28T23:45:09.606Z,75.58
2022-09-28T23:47:38.204Z,75.75
2022-09-28T23:50:06.830Z,75.64
2022-09-28T23:52:34.973Z,75.57
2022-09-28T23:55:02.602Z,75.53
2022-09-28T23:57:30.182Z,75.67
2022-09-28T23:59:58.604Z,75.51
